Time;durP1;ratioP1;P1;durP2;ratioP2;P2;SDS_P1;SDS_P2;PMS_P1;PMS_P2;Temp;Humidity;BMP_temperature;BMP_pressure;BME280_temperature;BME280_humidity;BME280_pressure;Samples;Min_cycle;Max_cycle;Signal;HPM_P1;HPM_P2
2022/03/09 00:01:45;;;;;;;5.38;3.85;;;4.70;96.00;;;;;;5033445;28;20231;-70
2022/03/09 00:04:12;;;;;;;6.18;4.00;;;4.70;95.80;;;;;;5019893;28;20232;-72
2022/03/09 00:06:40;;;;;;;4.43;3.33;;;4.70;95.40;;;;;;5030286;28;20242;-70
2022/03/09 00:09:09;;;;;;;7.65;3.60;;;4.60;95.40;;;;;;5036390;28;20240;-70
2022/03/09 00:11:38;;;;;;;4.50;3.70;;;4.70;95.30;;;;;;5027509;28;20338;-70
2022/03/09 00:14:05;;;;;;;9.23;3.83;;;4.70;95.10;;;;;;5020901;28;20462;-72
2022/03/09 00:16:32;;;;;;;12.18;4.35;;;4.50;95.30;;;;;;5021996;28;20203;-72
2022/03/09 00:18:59;;;;;;;6.00;3.75;;;4.40;95.60;;;;;;5018907;28;20311;-74
2022/03/09 00:21:26;;;;;;;5.35;3.80;;;4.50;96.00;;;;;;5023624;28;20659;-73
2022/03/09 00:23:54;;;;;;;4.72;3.22;;;4.40;95.90;;;;;;5032330;28;20683;-70
2022/03/09 00:26:21;;;;;;;8.18;3.90;;;4.40;95.90;;;;;;5035348;28;20654;-72
2022/03/09 00:28:48;;;;;;;5.90;3.70;;;4.40;96.00;;;;;;5027168;28;20332;-70
2022/03/09 00:31:15;;;;;;;7.82;3.85;;;4.30;96.00;;;;;;5025175;28;20757;-71
2022/03/09 00:33:42;;;;;;;6.47;3.83;;;4.30;96.20;;;;;;5019027;28;20943;-71
2022/03/09 00:36:09;;;;;;;6.13;3.70;;;4.30;96.20;;;;;;5023722;28;20284;-72
2022/03/09 00:38:36;;;;;;;8.98;3.55;;;4.30;96.20;;;;;;5032808;28;20573;-72
2022/03/09 00:41:04;;;;;;;4.90;3.65;;;4.40;95.80;;;;;;5025950;28;20287;-73
2022/03/09 00:43:31;;;;;;;7.45;4.05;;;4.40;95.60;;;;;;5034192;28;20224;-71
2022/03/09 00:45:58;;;;;;;6.07;3.72;;;4.50;95.50;;;;;;5024702;28;20223;-73
2022/03/09 00:48:25;;;;;;;6.40;4.20;;;4.50;95.30;;;;;;5032796;28;20208;-72
2022/03/09 00:50:52;;;;;;;5.93;3.65;;;4.40;95.50;;;;;;5034541;28;20212;-71
2022/03/09 00:53:19;;;;;;;4.82;3.30;;;4.30;95.60;;;;;;5021388;28;20204;-71
2022/03/09 00:55:46;;;;;;;8.60;3.67;;;4.30;95.70;;;;;;5019401;28;20211;-70
2022/03/09 00:58:14;;;;;;;4.82;3.60;;;4.20;95.80;;;;;;5029145;28;20211;-72
2022/03/09 01:00:41;;;;;;;6.05;3.20;;;4.30;96.00;;;;;;5033256;28;20200;-69
2022/03/09 01:03:08;;;;;;;4.70;3.53;;;4.50;95.80;;;;;;5022591;28;20220;-71
2022/03/09 01:05:35;;;;;;;6.38;4.15;;;4.40;95.60;;;;;;5028894;28;20280;-72
2022/03/09 01:08:02;;;;;;;7.00;3.88;;;4.50;95.50;;;;;;5034149;28;20751;-72
2022/03/09 01:10:29;;;;;;;5.93;4.10;;;4.40;95.40;;;;;;5026803;28;20204;-70
2022/03/09 01:12:56;;;;;;;4.15;3.15;;;4.30;95.60;;;;;;5022806;28;20275;-71
2022/03/09 01:15:24;;;;;;;7.18;4.35;;;4.40;95.60;;;;;;5034457;28;20311;-72
2022/03/09 01:17:51;;;;;;;8.57;4.95;;;4.30;95.60;;;;;;5040921;28;20287;-71
2022/03/09 01:20:19;;;;;;;7.35;4.03;;;4.30;95.60;;;;;;5020181;28;20205;-71
2022/03/09 01:22:45;;;;;;;4.35;3.65;;;4.30;95.40;;;;;;5018764;28;20624;-70
2022/03/09 01:25:12;;;;;;;5.75;3.50;;;4.20;95.20;;;;;;5022629;28;20284;-72
2022/03/09 01:27:39;;;;;;;5.93;3.72;;;4.20;95.80;;;;;;5019522;28;20215;-73
2022/03/09 01:30:08;;;;;;;6.88;5.00;;;4.10;95.50;;;;;;5022118;28;20201;-71
2022/03/09 01:32:37;;;;;;;5.82;3.85;;;4.10;95.50;;;;;;5023623;28;20592;-72
2022/03/09 01:35:05;;;;;;;5.60;4.05;;;4.10;95.40;;;;;;5030702;28;20215;-73
2022/03/09 01:37:32;;;;;;;6.93;4.72;;;4.00;95.80;;;;;;5020457;28;21037;-72
2022/03/09 01:39:59;;;;;;;6.35;4.15;;;3.90;96.00;;;;;;5014371;28;20300;-72
2022/03/09 01:42:26;;;;;;;7.35;4.30;;;3.90;96.30;;;;;;5029271;28;20227;-72
2022/03/09 01:44:53;;;;;;;4.82;3.70;;;3.90;96.30;;;;;;5016597;28;20291;-71
2022/03/09 01:47:21;;;;;;;5.47;3.30;;;3.90;96.50;;;;;;5031716;28;20618;-72
2022/03/09 01:49:49;;;;;;;5.10;4.05;;;3.80;96.20;;;;;;5026915;28;20249;-71
2022/03/09 01:52:16;;;;;;;6.10;3.90;;;3.80;96.30;;;;;;5025649;28;20227;-72
2022/03/09 01:54:43;;;;;;;5.93;4.13;;;3.80;96.90;;;;;;5027855;28;20573;-70
2022/03/09 01:57:10;;;;;;;8.50;5.20;;;3.80;96.80;;;;;;5026479;28;20220;-68
2022/03/09 01:59:37;;;;;;;8.05;4.47;;;3.70;97.00;;;;;;5032226;28;20289;-71
2022/03/09 02:02:04;;;;;;;6.50;5.75;;;3.70;97.20;;;;;;5024643;28;20653;-72
2022/03/09 02:04:31;;;;;;;9.48;5.28;;;3.60;97.30;;;;;;5031995;28;20235;-70
2022/03/09 02:07:00;;;;;;;8.40;5.10;;;3.60;97.70;;;;;;5024179;28;20224;-70
2022/03/09 02:09:44;;;;;;;6.00;4.65;;;3.60;97.90;;;;;;5018708;28;20224;-71
2022/03/09 02:12:15;;;;;;;7.97;6.50;;;3.60;98.20;;;;;;5019408;28;20270;-71
2022/03/09 02:14:44;;;;;;;6.20;4.50;;;3.60;98.10;;;;;;5018134;28;20270;-71
2022/03/09 02:17:13;;;;;;;7.90;4.25;;;3.50;98.40;;;;;;5020800;28;20294;-70
2022/03/09 02:19:42;;;;;;;6.78;4.40;;;3.40;98.50;;;;;;5016871;28;20538;-71
2022/03/09 02:22:19;;;;;;;6.43;4.10;;;3.40;98.70;;;;;;5021902;28;20307;-69
2022/03/09 02:24:47;;;;;;;5.88;4.10;;;3.50;98.60;;;;;;5032103;28;20290;-71
2022/03/09 02:27:14;;;;;;;6.45;5.22;;;3.50;98.30;;;;;;5025179;28;20287;-71
2022/03/09 02:29:41;;;;;;;7.90;4.43;;;3.40;98.50;;;;;;5031757;28;20314;-71
2022/03/09 02:32:09;;;;;;;5.15;3.67;;;3.40;98.40;;;;;;5021995;28;20277;-72
2022/03/09 02:34:37;;;;;;;7.97;3.97;;;3.50;98.20;;;;;;5020678;28;20708;-71
2022/03/09 02:37:04;;;;;;;5.93;4.07;;;3.50;97.80;;;;;;5022394;28;20232;-71
2022/03/09 02:39:32;;;;;;;4.88;3.72;;;3.40;97.90;;;;;;5025361;28;20208;-72
2022/03/09 02:42:00;;;;;;;10.48;4.43;;;3.40;98.00;;;;;;5020112;28;20305;-70
2022/03/09 02:44:26;;;;;;;6.40;4.10;;;3.40;98.30;;;;;;5026612;28;20246;-69
2022/03/09 02:46:53;;;;;;;6.10;4.38;;;3.40;98.50;;;;;;5027540;28;20250;-70
2022/03/09 02:49:20;;;;;;;6.07;4.35;;;3.40;98.60;;;;;;5022771;28;20612;-71
2022/03/09 02:51:47;;;;;;;8.32;4.65;;;3.40;98.60;;;;;;5020947;28;20287;-71
2022/03/09 02:54:15;;;;;;;5.00;3.50;;;3.30;98.90;;;;;;5027684;28;20234;-71
2022/03/09 02:56:58;;;;;;;6.30;4.20;;;3.30;99.20;;;;;;5023997;28;20287;-70
2022/03/09 02:59:25;;;;;;;9.20;4.80;;;3.30;99.40;;;;;;5027872;28;20648;-71
2022/03/09 03:01:52;;;;;;;4.90;3.78;;;3.20;99.50;;;;;;5022449;28;20316;-71
2022/03/09 03:04:19;;;;;;;7.25;4.50;;;3.20;99.70;;;;;;5030077;28;20735;-70
2022/03/09 03:06:46;;;;;;;4.68;3.92;;;3.10;99.90;;;;;;5031236;28;20204;-71
2022/03/09 03:09:13;;;;;;;5.10;3.65;;;3.00;99.90;;;;;;5024765;28;20208;-71
2022/03/09 03:11:40;;;;;;;5.60;4.72;;;3.00;99.90;;;;;;5031730;28;20243;-71
2022/03/09 03:14:08;;;;;;;7.13;3.67;;;3.00;99.90;;;;;;5033429;28;20302;-70
2022/03/09 03:16:36;;;;;;;5.85;3.90;;;2.90;99.90;;;;;;5026017;28;20280;-70
2022/03/09 03:19:03;;;;;;;8.13;4.20;;;2.90;99.90;;;;;;5015609;28;20233;-69
2022/03/09 03:21:30;;;;;;;8.48;4.57;;;2.90;99.90;;;;;;5024267;28;20216;-71
2022/03/09 03:23:57;;;;;;;7.10;5.28;;;2.90;99.90;;;;;;5033051;28;20545;-70
2022/03/09 03:26:25;;;;;;;4.85;3.90;;;2.90;99.90;;;;;;5032346;28;20236;-70
2022/03/09 03:28:52;;;;;;;4.53;3.10;;;2.90;99.90;;;;;;5024126;28;20230;-71
2022/03/09 03:31:21;;;;;;;9.68;4.63;;;2.90;99.90;;;;;;5031457;28;20219;-70
2022/03/09 03:33:48;;;;;;;6.45;4.55;;;2.90;99.90;;;;;;5022231;28;20222;-71
2022/03/09 03:36:15;;;;;;;6.70;4.30;;;2.90;99.90;;;;;;5030940;28;20220;-70
2022/03/09 03:38:44;;;;;;;5.90;4.10;;;2.90;99.90;;;;;;5031666;28;20205;-70
2022/03/09 03:41:11;;;;;;;8.55;4.70;;;2.80;99.90;;;;;;5036218;28;20322;-71
2022/03/09 03:43:37;;;;;;;6.15;4.45;;;2.70;99.90;;;;;;5031660;28;20204;-69
2022/03/09 03:46:05;;;;;;;6.93;3.83;;;2.70;99.90;;;;;;5024966;28;20193;-70
2022/03/09 03:48:33;;;;;;;9.98;5.28;;;2.70;99.90;;;;;;5019107;28;20228;-70
2022/03/09 03:51:00;;;;;;;5.82;4.20;;;2.60;99.90;;;;;;5031300;28;20303;-70
2022/03/09 03:53:27;;;;;;;11.88;4.82;;;2.60;99.90;;;;;;5024688;28;20576;-70
2022/03/09 03:55:54;;;;;;;6.75;3.65;;;2.50;99.90;;;;;;5026230;28;20358;-70
2022/03/09 03:58:21;;;;;;;10.05;5.32;;;2.50;99.90;;;;;;5022412;28;20305;-70
2022/03/09 04:00:49;;;;;;;4.72;3.97;;;2.50;99.90;;;;;;5023408;28;20639;-71
2022/03/09 04:03:16;;;;;;;5.55;4.57;;;2.50;99.90;;;;;;5024414;28;20288;-72
2022/03/09 04:05:44;;;;;;;6.60;5.00;;;2.30;99.90;;;;;;5032911;28;20288;-72
2022/03/09 04:08:11;;;;;;;7.00;4.28;;;2.30;99.90;;;;;;5035849;28;20319;-72
2022/03/09 04:10:38;;;;;;;8.65;4.45;;;2.40;99.90;;;;;;5038160;28;20302;-71
2022/03/09 04:13:05;;;;;;;6.85;4.95;;;2.40;99.90;;;;;;5020452;28;20564;-70
2022/03/09 04:15:32;;;;;;;6.63;4.28;;;2.30;99.90;;;;;;5035571;28;20275;-70
2022/03/09 04:18:00;;;;;;;5.50;4.40;;;2.30;99.90;;;;;;5016537;28;20204;-71
2022/03/09 04:20:27;;;;;;;5.13;3.95;;;2.30;99.90;;;;;;5022682;28;20288;-70
2022/03/09 04:22:55;;;;;;;6.50;5.07;;;2.30;99.90;;;;;;5035419;28;20611;-72
2022/03/09 04:25:23;;;;;;;6.40;4.22;;;2.30;99.90;;;;;;5035026;28;20275;-70
2022/03/09 04:27:50;;;;;;;9.05;5.35;;;2.30;99.90;;;;;;5019452;28;20212;-71
2022/03/09 04:30:17;;;;;;;9.77;5.15;;;2.30;99.90;;;;;;5019999;28;20235;-70
2022/03/09 04:32:44;;;;;;;6.47;4.68;;;2.30;99.90;;;;;;5027819;28;20230;-71
2022/03/09 04:35:11;;;;;;;7.50;5.07;;;2.40;99.90;;;;;;5034836;28;20291;-71
2022/03/09 04:37:38;;;;;;;6.78;5.40;;;2.30;99.90;;;;;;5031744;28;20283;-71
2022/03/09 04:40:08;;;;;;;6.57;4.75;;;2.30;99.90;;;;;;5022124;28;20228;-69
2022/03/09 04:42:35;;;;;;;7.47;5.10;;;2.30;99.90;;;;;;5027750;28;20315;-72
2022/03/09 04:45:02;;;;;;;7.32;4.55;;;2.30;99.90;;;;;;5035084;28;20219;-73
2022/03/09 04:47:29;;;;;;;7.38;5.30;;;2.20;99.90;;;;;;5024606;28;20621;-72
2022/03/09 04:49:56;;;;;;;7.90;4.60;;;2.10;99.90;;;;;;5023912;28;21027;-72
2022/03/09 04:52:23;;;;;;;4.88;4.35;;;2.20;99.90;;;;;;5022227;28;20229;-72
2022/03/09 04:54:51;;;;;;;7.20;4.60;;;2.20;99.90;;;;;;5032438;28;20288;-72
2022/03/09 04:57:19;;;;;;;8.15;5.65;;;2.20;99.90;;;;;;5030511;28;20729;-70
2022/03/09 04:59:46;;;;;;;9.07;5.78;;;2.10;99.90;;;;;;5026863;28;20227;-72
2022/03/09 05:02:13;;;;;;;8.18;5.03;;;2.10;99.90;;;;;;5033474;28;20251;-70
2022/03/09 05:04:46;;;;;;;8.40;4.75;;;2.10;99.90;;;;;;5020754;28;20283;-69
2022/03/09 05:07:13;;;;;;;8.50;4.82;;;2.10;99.90;;;;;;5024791;28;20307;-73
2022/03/09 05:09:40;;;;;;;9.50;5.82;;;2.10;99.90;;;;;;5019790;28;20219;-72
2022/03/09 05:12:08;;;;;;;11.68;5.03;;;2.10;99.90;;;;;;5021997;28;20339;-72
2022/03/09 05:14:36;;;;;;;10.10;6.88;;;2.00;99.90;;;;;;5026760;28;20287;-71
2022/03/09 05:17:03;;;;;;;9.60;6.07;;;2.00;99.90;;;;;;5026847;28;20967;-73
2022/03/09 05:19:30;;;;;;;8.18;5.35;;;2.00;99.90;;;;;;5026481;28;20275;-70
2022/03/09 05:21:57;;;;;;;5.82;5.00;;;2.00;99.90;;;;;;5025638;28;20232;-70
2022/03/09 05:24:24;;;;;;;8.32;6.28;;;2.10;99.90;;;;;;5020831;28;20279;-71
2022/03/09 05:26:51;;;;;;;9.55;6.78;;;2.00;99.90;;;;;;5031836;28;20279;-70
2022/03/09 05:29:18;;;;;;;7.45;4.90;;;1.90;99.90;;;;;;5021968;28;20224;-71
2022/03/09 05:31:47;;;;;;;10.77;6.57;;;1.90;99.90;;;;;;5031999;28;20223;-70
2022/03/09 05:34:14;;;;;;;8.07;5.70;;;1.80;99.90;;;;;;5021497;28;20197;-70
2022/03/09 05:36:42;;;;;;;8.30;4.75;;;1.80;99.90;;;;;;5021434;28;20193;-71
2022/03/09 05:39:10;;;;;;;6.80;5.18;;;1.80;99.90;;;;;;5026636;28;20295;-71
2022/03/09 05:41:37;;;;;;;7.00;4.85;;;1.80;99.90;;;;;;5033195;28;20315;-70
2022/03/09 05:44:04;;;;;;;9.50;5.68;;;1.80;99.90;;;;;;5033486;28;20244;-72
2022/03/09 05:46:31;;;;;;;12.32;5.97;;;1.80;99.90;;;;;;5035552;28;20209;-72
2022/03/09 05:49:01;;;;;;;6.05;5.22;;;1.80;99.90;;;;;;5032676;28;20234;-72
2022/03/09 05:51:28;;;;;;;11.45;5.53;;;1.80;99.90;;;;;;5032872;28;20232;-72
2022/03/09 05:53:55;;;;;;;9.13;6.22;;;1.80;99.90;;;;;;5034067;28;20291;-72
2022/03/09 05:56:22;;;;;;;5.65;4.85;;;1.90;99.90;;;;;;5031991;28;20233;-71
2022/03/09 05:58:49;;;;;;;12.90;5.20;;;1.90;99.90;;;;;;5031870;28;20228;-69
2022/03/09 06:01:16;;;;;;;15.57;6.22;;;1.90;99.90;;;;;;5019631;28;20314;-70
2022/03/09 06:03:43;;;;;;;10.15;5.18;;;1.90;99.90;;;;;;5032985;28;20200;-71
2022/03/09 06:06:12;;;;;;;6.80;5.40;;;1.90;99.90;;;;;;5033825;28;20211;-72
2022/03/09 06:08:39;;;;;;;7.53;5.70;;;1.90;99.90;;;;;;5032031;28;20445;-70
2022/03/09 06:11:05;;;;;;;7.45;4.72;;;2.00;99.90;;;;;;5013439;28;20220;-70
2022/03/09 06:13:32;;;;;;;9.90;5.53;;;2.00;99.90;;;;;;5021086;28;20287;-73
2022/03/09 06:15:59;;;;;;;8.18;5.32;;;2.10;99.90;;;;;;5023810;28;20200;-70
2022/03/09 06:18:26;;;;;;;9.20;5.50;;;2.10;99.90;;;;;;5030291;28;20208;-71
2022/03/09 06:20:53;;;;;;;8.02;6.05;;;2.00;99.90;;;;;;5028882;28;20196;-72
2022/03/09 06:23:21;;;;;;;7.05;5.00;;;2.10;99.90;;;;;;5015882;28;20292;-72
2022/03/09 06:25:48;;;;;;;10.25;5.75;;;2.30;99.90;;;;;;5032064;28;20547;-71
2022/03/09 06:28:16;;;;;;;8.40;5.00;;;2.20;99.90;;;;;;5032626;28;20200;-71
2022/03/09 06:30:43;;;;;;;8.20;5.13;;;2.20;99.90;;;;;;5025856;28;20266;-71
2022/03/09 06:33:10;;;;;;;8.00;5.25;;;2.30;99.90;;;;;;5027798;28;20221;-71
2022/03/09 06:35:37;;;;;;;9.77;6.05;;;2.30;99.90;;;;;;5022309;28;20200;-72
2022/03/09 06:38:04;;;;;;;15.25;6.18;;;2.40;99.90;;;;;;5022628;28;20205;-72
2022/03/09 06:40:32;;;;;;;9.35;5.90;;;2.50;99.90;;;;;;5023583;28;20199;-72
2022/03/09 06:43:01;;;;;;;6.72;5.18;;;2.60;99.90;;;;;;5016390;28;20328;-71
2022/03/09 06:45:28;;;;;;;7.40;5.85;;;2.70;99.90;;;;;;5031636;28;20232;-72
2022/03/09 06:47:56;;;;;;;11.15;5.97;;;2.70;99.90;;;;;;5032829;28;20203;-72
2022/03/09 06:50:23;;;;;;;10.32;8.27;;;2.80;99.90;;;;;;5028296;28;20226;-70
2022/03/09 06:52:50;;;;;;;7.28;5.53;;;2.90;99.90;;;;;;5027611;28;20231;-71
2022/03/09 06:55:17;;;;;;;10.95;5.45;;;3.00;99.90;;;;;;5039733;28;20302;-70
2022/03/09 06:57:45;;;;;;;9.15;5.57;;;3.40;99.90;;;;;;5032645;28;20227;-72
2022/03/09 07:00:15;;;;;;;8.13;6.30;;;4.30;99.90;;;;;;5031798;28;20232;-72
2022/03/09 07:02:43;;;;;;;15.25;9.85;;;5.60;97.60;;;;;;5031958;28;20305;-71
2022/03/09 07:05:11;;;;;;;12.02;7.68;;;6.70;94.00;;;;;;5032233;28;20717;-72
2022/03/09 07:07:38;;;;;;;18.95;11.52;;;8.00;92.00;;;;;;5029851;28;20288;-72
2022/03/09 07:10:10;;;;;;;37.60;20.10;;;9.10;88.60;;;;;;5025068;28;20311;-70
2022/03/09 07:12:37;;;;;;;32.85;18.33;;;9.70;82.90;;;;;;5029148;28;20256;-70
2022/03/09 07:15:06;;;;;;;27.50;16.83;;;10.70;81.00;;;;;;5028921;28;20294;-71
2022/03/09 07:17:33;;;;;;;35.75;18.65;;;11.40;77.10;;;;;;5020665;28;20201;-71
2022/03/09 07:20:00;;;;;;;18.15;9.75;;;12.40;75.30;;;;;;5018717;28;20729;-69
2022/03/09 07:22:27;;;;;;;12.63;7.40;;;13.00;71.80;;;;;;5030933;28;20224;-70
2022/03/09 07:24:54;;;;;;;7.07;5.25;;;13.30;70.10;;;;;;5027392;28;20231;-69
2022/03/09 07:27:21;;;;;;;6.88;6.18;;;13.60;67.60;;;;;;5016678;28;20971;-71
2022/03/09 07:29:48;;;;;;;7.60;6.47;;;13.40;67.70;;;;;;5030639;28;20318;-70
2022/03/09 07:32:16;;;;;;;9.65;7.40;;;13.70;65.60;;;;;;5037288;28;20304;-70
2022/03/09 07:34:43;;;;;;;10.93;7.25;;;14.20;64.30;;;;;;5032144;28;20283;-70
2022/03/09 07:37:11;;;;;;;12.70;8.35;;;14.30;63.30;;;;;;5020778;28;20223;-70
2022/03/09 07:39:38;;;;;;;9.18;7.15;;;14.40;63.00;;;;;;5012301;28;20211;-71
2022/03/09 07:42:05;;;;;;;11.52;7.28;;;14.80;61.90;;;;;;5020242;28;20584;-71
2022/03/09 07:44:32;;;;;;;9.20;5.73;;;15.50;61.00;;;;;;5036956;28;20204;-71
2022/03/09 07:47:00;;;;;;;10.10;6.40;;;15.50;59.60;;;;;;5047755;28;20537;-72
2022/03/09 07:49:33;;;;;;;11.90;5.90;;;15.70;58.80;;;;;;5035831;28;20460;-72
2022/03/09 07:52:00;;;;;;;8.10;6.07;;;16.20;59.30;;;;;;5035735;28;20602;-70
2022/03/09 07:54:27;;;;;;;7.30;5.50;;;16.60;57.70;;;;;;5035576;28;20454;-71
2022/03/09 07:56:55;;;;;;;7.97;5.50;;;16.50;57.60;;;;;;5025933;28;20508;-73
2022/03/09 07:59:22;;;;;;;7.30;6.07;;;16.70;56.70;;;;;;5027465;28;20446;-71
2022/03/09 08:01:52;;;;;;;11.90;5.67;;;17.00;56.80;;;;;;5034783;28;20498;-71
2022/03/09 08:04:20;;;;;;;10.20;4.90;;;17.20;56.30;;;;;;5025110;28;20497;-71
2022/03/09 08:06:51;;;;;;;10.87;5.90;;;17.20;54.50;;;;;;5025797;28;20965;-70
2022/03/09 08:09:18;;;;;;;8.50;5.77;;;17.20;55.10;;;;;;5018979;28;20646;-70
2022/03/09 08:11:46;;;;;;;7.43;6.20;;;17.40;54.90;;;;;;5032351;28;20560;-69
2022/03/09 08:14:13;;;;;;;10.83;7.40;;;17.70;54.60;;;;;;5028667;28;20530;-70
2022/03/09 08:16:40;;;;;;;11.30;6.00;;;17.70;53.70;;;;;;5023844;28;20452;-70
2022/03/09 08:19:07;;;;;;;8.03;5.77;;;17.90;54.80;;;;;;5023171;28;20803;-69
2022/03/09 08:21:35;;;;;;;7.90;6.10;;;17.70;54.10;;;;;;5031758;28;20466;-69
2022/03/09 08:24:03;;;;;;;7.83;6.80;;;18.20;53.90;;;;;;5018880;28;20526;-70
2022/03/09 08:26:31;;;;;;;7.57;5.20;;;18.20;52.70;;;;;;5035001;28;20546;-70
2022/03/09 08:28:58;;;;;;;9.70;6.80;;;18.20;52.60;;;;;;5026956;28;20527;-70
2022/03/09 08:31:26;;;;;;;11.23;6.20;;;18.50;52.40;;;;;;5023701;28;20487;-72
2022/03/09 08:33:54;;;;;;;8.43;6.50;;;18.50;52.50;;;;;;5025293;28;20452;-69
2022/03/09 08:36:21;;;;;;;7.70;5.80;;;18.40;52.60;;;;;;5035268;28;20499;-70
2022/03/09 08:38:48;;;;;;;9.73;7.20;;;18.30;52.30;;;;;;5031972;28;20481;-72
2022/03/09 08:41:16;;;;;;;9.30;6.23;;;18.10;52.00;;;;;;5029670;28;20479;-71
2022/03/09 08:43:44;;;;;;;12.80;6.87;;;18.20;52.60;;;;;;5023697;28;20428;-70
2022/03/09 08:46:11;;;;;;;7.87;6.10;;;18.30;52.00;;;;;;5034023;28;20449;-68
2022/03/09 08:48:39;;;;;;;10.13;6.80;;;18.20;51.40;;;;;;5020637;28;20455;-68
2022/03/09 08:51:08;;;;;;;14.10;5.73;;;18.00;51.90;;;;;;5032235;28;20986;-69
2022/03/09 08:53:35;;;;;;;8.20;6.43;;;18.60;51.70;;;;;;5018775;28;20483;-69
2022/03/09 08:56:02;;;;;;;10.30;6.50;;;18.90;51.10;;;;;;5021123;28;20610;-69
2022/03/09 08:58:30;;;;;;;9.80;6.80;;;19.70;51.00;;;;;;5045628;28;20278;-68
2022/03/09 09:00:57;;;;;;;9.23;6.50;;;20.10;50.10;;;;;;5026354;28;20530;-70
2022/03/09 09:03:24;;;;;;;9.07;6.90;;;20.10;49.50;;;;;;5026973;28;20876;-69
2022/03/09 09:05:52;;;;;;;8.20;6.60;;;20.00;49.70;;;;;;5032591;28;20447;-69
2022/03/09 09:08:19;;;;;;;11.10;6.57;;;20.20;49.10;;;;;;5021574;28;20543;-69
2022/03/09 09:10:46;;;;;;;9.47;6.90;;;20.80;49.60;;;;;;5020831;28;20482;-69
2022/03/09 09:13:13;;;;;;;8.83;6.37;;;21.00;48.80;;;;;;5027064;28;20462;-68
2022/03/09 09:15:41;;;;;;;9.70;6.37;;;21.20;47.90;;;;;;5024048;28;20529;-69
2022/03/09 09:18:09;;;;;;;10.30;6.93;;;21.50;47.90;;;;;;5016242;28;20523;-70
2022/03/09 09:20:37;;;;;;;8.50;6.60;;;21.40;47.10;;;;;;5024943;28;20443;-71
2022/03/09 09:23:05;;;;;;;12.63;6.60;;;21.30;46.90;;;;;;5025923;28;20465;-69
2022/03/09 09:25:31;;;;;;;7.60;6.53;;;21.00;47.10;;;;;;5027195;28;20502;-69
2022/03/09 09:27:59;;;;;;;16.70;7.27;;;21.60;47.80;;;;;;5019383;28;20531;-68
2022/03/09 09:30:27;;;;;;;9.20;5.97;;;22.10;46.60;;;;;;5026271;28;20478;-69
2022/03/09 09:32:55;;;;;;;10.30;6.17;;;22.20;46.40;;;;;;5025242;28;20494;-68
2022/03/09 09:35:23;;;;;;;9.40;6.30;;;22.00;45.80;;;;;;5027880;28;20483;-69
2022/03/09 09:37:51;;;;;;;14.93;6.43;;;22.60;45.70;;;;;;5029740;28;20451;-69
2022/03/09 09:40:18;;;;;;;8.07;6.57;;;22.50;44.80;;;;;;5033283;28;20450;-69
2022/03/09 09:42:45;;;;;;;8.87;7.00;;;22.80;45.20;;;;;;5026377;28;20644;-69
2022/03/09 09:45:12;;;;;;;7.00;5.90;;;22.50;43.90;;;;;;5021924;28;20526;-68
2022/03/09 09:47:39;;;;;;;16.53;6.90;;;22.70;44.20;;;;;;5023647;28;20539;-70
2022/03/09 09:50:13;;;;;;;9.97;6.87;;;22.60;43.90;;;;;;5025285;28;20465;-68
2022/03/09 09:52:42;;;;;;;15.97;8.07;;;22.80;44.20;;;;;;5025601;28;20479;-69
2022/03/09 09:55:09;;;;;;;10.83;7.10;;;22.70;43.30;;;;;;5033864;28;20457;-69
2022/03/09 09:57:36;;;;;;;11.43;7.30;;;22.90;45.40;;;;;;5032377;28;20829;-69
2022/03/09 10:00:05;;;;;;;14.40;6.73;;;22.90;43.40;;;;;;5026428;28;20456;-69
2022/03/09 10:02:32;;;;;;;10.67;7.20;;;22.50;43.60;;;;;;5017305;28;20542;-70
2022/03/09 10:04:59;;;;;;;8.03;6.40;;;22.50;43.30;;;;;;5023640;28;20481;-69
2022/03/09 10:07:29;;;;;;;7.73;5.93;;;22.40;43.20;;;;;;5033508;28;20505;-70
2022/03/09 10:09:56;;;;;;;6.93;6.00;;;22.20;42.60;;;;;;5030207;28;20461;-70
2022/03/09 10:12:28;;;;;;;8.27;6.77;;;21.40;43.40;;;;;;5027877;28;20586;-69
2022/03/09 10:14:56;;;;;;;9.93;7.17;;;21.00;44.00;;;;;;5031312;28;20530;-69
2022/03/09 10:17:25;;;;;;;10.47;5.97;;;20.80;44.40;;;;;;5025189;28;20470;-69
2022/03/09 10:19:58;;;;;;;10.00;7.40;;;20.60;44.30;;;;;;5032487;28;20541;-70
2022/03/09 10:22:31;;;;;;;10.67;6.57;;;20.10;44.60;;;;;;5032886;28;20992;-69
2022/03/09 10:25:00;;;;;;;8.57;6.03;;;20.20;45.80;;;;;;5032731;28;20571;-70
2022/03/09 10:27:39;;;;;;;9.63;6.40;;;19.80;45.80;;;;;;5033849;28;20524;-68
2022/03/09 10:30:10;;;;;;;10.23;6.70;;;19.90;46.70;;;;;;5024545;28;20448;-69
2022/03/09 10:32:48;;;;;;;9.57;6.80;;;20.00;47.30;;;;;;5023147;28;20576;-69
2022/03/09 10:35:17;;;;;;;7.77;6.20;;;20.00;45.40;;;;;;5032733;28;20538;-69
2022/03/09 10:37:47;;;;;;;9.03;6.60;;;20.40;46.40;;;;;;5028151;28;20526;-70
2022/03/09 10:40:17;;;;;;;8.70;6.73;;;20.30;45.80;;;;;;5032090;28;20533;-69
2022/03/09 10:42:44;;;;;;;13.43;7.40;;;20.00;45.30;;;;;;5028213;28;20472;-69
2022/03/09 10:45:13;;;;;;;10.43;6.10;;;20.00;46.50;;;;;;5023740;28;20473;-69
2022/03/09 10:47:43;;;;;;;9.70;7.00;;;19.70;45.20;;;;;;5021588;28;20459;-68
2022/03/09 10:50:13;;;;;;;10.27;6.90;;;19.10;44.80;;;;;;5027215;28;20793;-71
2022/03/09 10:52:50;;;;;;;11.53;7.20;;;18.00;46.10;;;;;;5027959;28;20573;-70
2022/03/09 10:55:22;;;;;;;10.05;6.80;;;17.20;47.40;;;;;;5033101;28;20467;-69
2022/03/09 10:57:49;;;;;;;16.58;7.43;;;16.50;48.30;;;;;;5026173;28;20201;-69
2022/03/09 11:00:17;;;;;;;9.85;7.55;;;16.00;49.70;;;;;;5018603;28;20231;-69
2022/03/09 11:02:50;;;;;;;9.18;7.95;;;15.70;50.90;;;;;;5031148;28;20232;-69
2022/03/09 11:05:20;;;;;;;11.20;6.78;;;15.10;50.00;;;;;;5025361;28;20196;-69
2022/03/09 11:07:49;;;;;;;8.50;6.18;;;14.80;52.00;;;;;;5020869;28;20196;-68
2022/03/09 11:10:16;;;;;;;12.25;6.80;;;14.90;52.10;;;;;;5021859;28;20229;-69
2022/03/09 11:12:44;;;;;;;10.00;7.55;;;14.80;52.40;;;;;;5021922;28;20228;-70
2022/03/09 11:15:12;;;;;;;9.52;6.88;;;14.40;53.20;;;;;;5027404;28;20228;-70
2022/03/09 11:17:40;;;;;;;7.18;6.38;;;14.60;55.10;;;;;;5020097;28;20213;-70
2022/03/09 11:20:09;;;;;;;10.45;7.30;;;14.70;52.20;;;;;;5022436;28;20694;-68
2022/03/09 11:22:36;;;;;;;8.80;6.93;;;14.80;52.20;;;;;;5035884;28;20220;-69
2022/03/09 11:25:05;;;;;;;9.32;6.72;;;14.70;52.60;;;;;;5036361;28;20287;-69
2022/03/09 11:27:32;;;;;;;8.40;7.15;;;14.50;52.50;;;;;;5028866;28;20215;-70
2022/03/09 11:30:25;;;;;;;7.82;6.28;;;14.50;51.00;;;;;;5020527;28;20196;-69
2022/03/09 11:32:54;;;;;;;9.88;6.78;;;14.30;50.90;;;;;;5032519;28;20255;-69
2022/03/09 11:35:35;;;;;;;9.75;6.30;;;14.20;51.20;;;;;;5024845;28;20208;-69
2022/03/09 11:38:03;;;;;;;11.30;6.03;;;14.20;51.20;;;;;;5024108;28;20196;-68
2022/03/09 11:40:32;;;;;;;9.07;6.93;;;14.10;52.20;;;;;;5032787;28;20203;-68
2022/03/09 11:43:29;;;;;;;12.27;7.22;;;14.10;53.10;;;;;;5036044;28;20228;-68
2022/03/09 11:45:56;;;;;;;8.13;7.05;;;14.20;51.60;;;;;;5030735;28;20212;-69
2022/03/09 11:48:23;;;;;;;12.50;7.25;;;14.20;50.00;;;;;;5023685;28;20300;-69
2022/03/09 11:51:12;;;;;;;6.57;5.80;;;13.90;50.60;;;;;;5024110;28;20215;-69
2022/03/09 11:53:42;;;;;;;10.10;6.75;;;13.80;50.50;;;;;;5032611;28;20662;-69
2022/03/09 11:56:31;;;;;;;9.90;6.80;;;13.70;51.00;;;;;;5031620;28;20208;-70
2022/03/09 11:59:28;;;;;;;13.63;7.32;;;13.80;51.20;;;;;;5020953;28;20215;-69
2022/03/09 12:02:37;;;;;;;7.85;6.95;;;13.60;51.70;;;;;;5033036;28;20259;-70
2022/03/09 12:05:05;;;;;;;8.35;6.63;;;13.50;52.90;;;;;;5030922;28;20214;-70
2022/03/09 12:07:49;;;;;;;7.80;6.32;;;13.70;53.00;;;;;;5028316;28;20255;-69
2022/03/09 12:10:17;;;;;;;11.65;6.45;;;13.60;51.60;;;;;;5021260;28;20247;-70
2022/03/09 12:13:11;;;;;;;12.32;7.20;;;13.60;51.00;;;;;;5023427;28;20232;-68
2022/03/09 12:16:04;;;;;;;9.65;7.93;;;13.40;51.40;;;;;;5025407;28;20287;-68
2022/03/09 12:18:38;;;;;;;10.35;6.97;;;13.30;52.90;;;;;;5037445;28;20212;-69
2022/03/09 12:21:06;;;;;;;9.43;6.95;;;13.30;52.80;;;;;;5037322;28;20286;-68
2022/03/09 12:23:34;;;;;;;13.32;6.82;;;13.30;54.60;;;;;;5035975;28;20213;-69
2022/03/09 12:26:01;;;;;;;8.02;6.15;;;13.40;54.10;;;;;;5027274;28;20211;-70
2022/03/09 12:28:50;;;;;;;9.13;7.70;;;13.30;53.20;;;;;;5031527;28;20197;-68
2022/03/09 12:31:23;;;;;;;11.52;8.00;;;13.50;53.20;;;;;;5033773;28;20235;-69
2022/03/09 12:33:55;;;;;;;9.02;7.05;;;13.50;53.50;;;;;;5022637;28;20638;-69
2022/03/09 12:36:24;;;;;;;10.10;7.28;;;13.40;53.90;;;;;;5030494;28;20319;-71
2022/03/09 12:38:52;;;;;;;9.98;6.20;;;13.50;53.60;;;;;;5029564;28;20258;-68
2022/03/09 12:41:27;;;;;;;10.10;6.75;;;13.30;52.10;;;;;;5028120;28;20574;-70
2022/03/09 12:43:59;;;;;;;8.07;6.18;;;13.20;52.60;;;;;;5035071;28;20266;-70
2022/03/09 12:46:27;;;;;;;9.93;7.28;;;13.20;52.70;;;;;;5027502;28;20210;-69
2022/03/09 12:49:02;;;;;;;11.63;6.43;;;13.20;52.30;;;;;;5016879;28;20246;-69
2022/03/09 12:51:30;;;;;;;13.45;7.22;;;13.20;52.50;;;;;;5014238;28;20238;-69
2022/03/09 12:53:57;;;;;;;8.90;6.85;;;13.20;52.80;;;;;;5015361;28;20202;-68
2022/03/09 12:56:25;;;;;;;9.23;7.30;;;13.30;53.00;;;;;;5014975;28;20297;-71
2022/03/09 12:58:53;;;;;;;10.80;7.43;;;13.30;53.00;;;;;;5014844;28;20208;-69